Time;durP1;ratioP1;P1;durP2;ratioP2;P2;SDS_P1;SDS_P2;PMS_P1;PMS_P2;Temp;Humidity;BMP_temperature;BMP_pressure;BME280_temperature;BME280_humidity;BME280_pressure;Samples;Min_cycle;Max_cycle;Signal;HPM_P1;HPM_P2
2022/12/27 00:00:50;;;;;;;65.15;49.50;;;15.00;76.50;;;;;;4924351;28;89806;-54
2022/12/27 00:03:16;;;;;;;64.93;49.65;;;15.00;76.20;;;;;;4930749;28;90448;-53
2022/12/27 00:05:43;;;;;;;64.32;49.33;;;14.90;76.50;;;;;;4920336;28;90154;-50
2022/12/27 00:08:09;;;;;;;65.45;49.78;;;14.90;76.20;;;;;;4918004;28;90896;-53
2022/12/27 00:10:35;;;;;;;65.53;49.85;;;14.90;76.10;;;;;;4925914;28;90578;-53
2022/12/27 00:13:00;;;;;;;64.82;49.40;;;14.90;75.60;;;;;;4926061;28;91303;-52
2022/12/27 00:15:26;;;;;;;66.50;49.60;;;14.90;75.60;;;;;;4922290;28;89995;-52
2022/12/27 00:17:52;;;;;;;65.05;49.65;;;14.90;75.60;;;;;;4925920;28;89988;-53
2022/12/27 00:20:17;;;;;;;64.47;49.65;;;14.90;75.60;;;;;;4930789;28;94593;-51
2022/12/27 00:22:43;;;;;;;64.70;49.35;;;14.90;75.20;;;;;;4926371;28;90984;-53
2022/12/27 00:25:09;;;;;;;64.50;49.45;;;14.90;75.10;;;;;;4922764;28;92265;-53
2022/12/27 00:27:36;;;;;;;64.25;49.53;;;14.90;74.80;;;;;;4926019;28;90675;-52
2022/12/27 00:30:02;;;;;;;63.63;49.15;;;14.90;74.70;;;;;;4916502;28;89679;-54
2022/12/27 00:32:27;;;;;;;64.93;49.65;;;14.90;75.10;;;;;;4921261;28;91725;-52
2022/12/27 00:34:53;;;;;;;65.50;49.97;;;14.90;74.70;;;;;;4925684;28;91989;-52
2022/12/27 00:37:19;;;;;;;65.38;49.80;;;14.80;74.60;;;;;;4925609;28;89916;-51
2022/12/27 00:39:44;;;;;;;66.97;49.22;;;14.80;75.30;;;;;;4928666;28;89949;-54
2022/12/27 00:42:10;;;;;;;63.83;49.55;;;14.80;74.30;;;;;;4924107;28;89786;-52
2022/12/27 00:44:35;;;;;;;65.53;50.45;;;14.90;74.30;;;;;;4921192;28;91125;-53
2022/12/27 00:47:01;;;;;;;63.88;49.35;;;14.90;73.80;;;;;;4928487;28;90953;-53
2022/12/27 00:49:27;;;;;;;64.32;49.47;;;14.90;73.60;;;;;;4916610;28;92858;-51
2022/12/27 00:51:52;;;;;;;64.10;48.97;;;14.90;73.30;;;;;;4923715;28;91069;-52
2022/12/27 00:54:18;;;;;;;65.03;49.47;;;14.90;73.00;;;;;;4929704;28;90333;-51
2022/12/27 00:56:44;;;;;;;63.30;49.15;;;14.90;73.10;;;;;;4930381;28;93243;-51
2022/12/27 00:59:10;;;;;;;66.03;49.50;;;14.90;72.80;;;;;;4931402;28;90117;-54
2022/12/27 01:01:37;;;;;;;65.80;49.60;;;14.90;72.50;;;;;;4924153;28;89846;-53
2022/12/27 01:04:04;;;;;;;64.88;49.55;;;14.90;72.20;;;;;;4929868;28;90138;-54
2022/12/27 01:06:32;;;;;;;65.03;49.38;;;14.90;72.50;;;;;;4920318;28;90038;-54
2022/12/27 01:08:59;;;;;;;65.10;49.38;;;14.90;72.40;;;;;;4923997;28;90875;-53
2022/12/27 01:11:27;;;;;;;63.63;49.53;;;14.90;72.10;;;;;;4928549;28;91317;-50
2022/12/27 01:13:58;;;;;;;63.45;49.28;;;14.90;71.90;;;;;;4930774;28;91017;-53
2022/12/27 01:16:25;;;;;;;63.63;49.22;;;14.80;71.80;;;;;;4936474;28;90991;-52
2022/12/27 01:18:52;;;;;;;62.83;48.70;;;14.80;71.80;;;;;;4922506;28;92524;-51
2022/12/27 01:21:20;;;;;;;63.00;49.28;;;14.80;71.50;;;;;;4923221;28;90286;-53
2022/12/27 01:23:46;;;;;;;64.30;49.60;;;14.80;71.40;;;;;;4929185;28;90014;-55
2022/12/27 01:26:15;;;;;;;63.08;48.85;;;14.80;71.40;;;;;;4927585;28;89182;-51
2022/12/27 01:28:41;;;;;;;63.33;48.90;;;14.80;71.30;;;;;;4924002;28;93189;-50
2022/12/27 01:31:09;;;;;;;65.45;49.25;;;14.80;71.00;;;;;;4920850;28;89834;-53
2022/12/27 01:33:35;;;;;;;63.40;48.80;;;14.80;71.10;;;;;;4920099;28;90999;-54
2022/12/27 01:36:17;;;;;;;63.88;49.25;;;14.70;71.00;;;;;;4934134;28;90942;-51
2022/12/27 01:38:42;;;;;;;63.83;49.13;;;14.70;71.30;;;;;;4931424;28;90148;-52
2022/12/27 01:44:42;;;;;;;64.40;49.40;;;14.70;70.70;;;;;;4917827;28;92885;-52
2022/12/27 01:47:33;;;;;;;63.78;49.25;;;14.70;70.70;;;;;;4930516;28;92963;-52
2022/12/27 01:50:11;;;;;;;63.08;49.05;;;14.70;70.70;;;;;;4914058;28;91276;-52
2022/12/27 01:53:00;;;;;;;65.13;49.03;;;14.70;70.50;;;;;;4922375;28;90875;-54
2022/12/27 01:55:32;;;;;;;63.95;49.00;;;14.70;70.50;;;;;;4924568;28;90272;-53
2022/12/27 01:58:05;;;;;;;64.05;49.17;;;14.60;70.50;;;;;;4924274;28;90863;-51
2022/12/27 02:00:31;;;;;;;65.65;48.92;;;14.70;70.50;;;;;;4922254;28;91836;-53
2022/12/27 02:02:57;;;;;;;62.85;49.00;;;14.60;70.40;;;;;;4922242;28;96578;-54
2022/12/27 02:05:24;;;;;;;64.25;48.95;;;14.60;70.40;;;;;;4924942;28;90407;-50
2022/12/27 02:07:59;;;;;;;65.32;49.53;;;14.60;70.40;;;;;;4923189;28;91858;-54
2022/12/27 02:10:27;;;;;;;63.55;49.13;;;14.60;70.30;;;;;;4933269;28;91249;-53
2022/12/27 02:12:53;;;;;;;64.60;49.53;;;14.50;70.50;;;;;;4934781;28;89930;-54
2022/12/27 02:15:19;;;;;;;64.32;49.20;;;14.50;70.40;;;;;;4922386;28;90155;-55
2022/12/27 02:17:45;;;;;;;63.70;49.42;;;14.50;70.40;;;;;;4919451;28;90331;-53
2022/12/27 02:20:11;;;;;;;63.20;48.72;;;14.50;70.40;;;;;;4923333;28;95977;-52
2022/12/27 02:26:04;;;;;;;62.22;48.78;;;14.50;70.30;;;;;;4934722;28;91277;-50
2022/12/27 02:28:47;;;;;;;64.55;48.92;;;14.50;70.30;;;;;;4929126;28;91064;-53
2022/12/27 02:31:23;;;;;;;62.80;49.03;;;14.50;70.40;;;;;;4927283;28;91785;-54
2022/12/27 02:33:52;;;;;;;62.20;48.90;;;14.50;70.40;;;;;;4933844;28;89898;-51
2022/12/27 02:36:24;;;;;;;64.03;48.90;;;14.50;70.20;;;;;;4919402;28;89931;-52
2022/12/27 02:38:54;;;;;;;63.60;49.45;;;14.40;70.20;;;;;;4925839;28;90926;-53
2022/12/27 02:57:07;;;;;;;63.80;49.22;;;14.40;70.10;;;;;;4928841;28;89712;-53
2022/12/27 02:59:09;;;;;;;62.25;48.78;;;14.30;70.20;;;;;;4924630;28;90434;-52
2022/12/27 03:05:05;;;;;;;63.10;48.78;;;14.30;70.30;;;;;;4929187;28;89840;-51
2022/12/27 03:07:39;;;;;;;62.45;48.92;;;14.30;70.20;;;;;;4949903;28;89756;-54
2022/12/27 03:16:23;;;;;;;62.67;48.85;;;14.30;70.30;;;;;;4927086;28;91066;-54
2022/12/27 03:19:02;;;;;;;62.90;48.85;;;14.30;70.10;;;;;;4921260;28;91125;-52
2022/12/27 03:27:27;;;;;;;62.85;48.90;;;14.30;70.00;;;;;;4924707;28;89551;-52
2022/12/27 03:35:37;;;;;;;62.65;48.65;;;14.30;69.80;;;;;;4917595;28;94548;-53
2022/12/27 03:38:04;;;;;;;62.67;49.08;;;14.30;69.80;;;;;;4919056;28;91292;-52
2022/12/27 03:43:35;;;;;;;64.60;49.65;;;14.30;69.70;;;;;;4920876;28;91829;-51
2022/12/27 03:46:34;;;;;;;64.28;49.08;;;14.30;69.70;;;;;;4925431;28;90820;-53
2022/12/27 03:49:18;;;;;;;63.15;49.05;;;14.30;69.80;;;;;;4921037;28;93303;-54
2022/12/27 03:52:03;;;;;;;64.63;49.45;;;14.30;69.60;;;;;;4928108;28;89850;-51
2022/12/27 03:54:32;;;;;;;62.40;48.78;;;14.30;69.70;;;;;;4929307;28;90975;-53
2022/12/27 03:57:01;;;;;;;62.53;48.97;;;14.30;69.80;;;;;;4916191;28;91646;-52
2022/12/27 03:59:27;;;;;;;62.25;48.85;;;14.20;69.70;;;;;;4930763;28;92365;-51
2022/12/27 04:01:53;;;;;;;63.58;49.17;;;14.20;69.70;;;;;;4920545;28;90092;-53
2022/12/27 04:04:19;;;;;;;64.22;48.92;;;14.20;69.70;;;;;;4924918;28;91500;-54
2022/12/27 04:06:45;;;;;;;63.53;49.00;;;14.20;69.70;;;;;;4928131;28;91316;-51
2022/12/27 04:36:33;;;;;;;63.30;48.97;;;14.10;69.60;;;;;;4928576;28;89997;-53
2022/12/27 04:38:59;;;;;;;63.17;49.35;;;14.10;70.40;;;;;;4920486;28;90011;-56
2022/12/27 04:55:27;;;;;;;63.67;49.08;;;14.00;69.70;;;;;;4926605;28;90184;-54
2022/12/27 04:57:54;;;;;;;63.30;49.00;;;14.00;69.60;;;;;;4924585;28;89994;-55
2022/12/27 05:03:20;;;;;;;63.80;48.92;;;14.00;69.70;;;;;;4931977;28;91283;-54
2022/12/27 05:05:47;;;;;;;63.75;49.00;;;14.00;69.40;;;;;;4922629;28;91737;-51
2022/12/27 05:13:58;;;;;;;61.55;48.30;;;13.90;69.50;;;;;;4924083;28;90825;-51
2022/12/27 05:16:34;;;;;;;61.88;48.85;;;13.90;69.50;;;;;;4916401;28;91410;-52
2022/12/27 05:19:00;;;;;;;60.83;48.38;;;13.90;69.50;;;;;;4928321;28;90559;-56
2022/12/27 05:21:26;;;;;;;62.10;48.65;;;13.90;69.60;;;;;;4933379;28;91778;-54
2022/12/27 05:26:37;;;;;;;62.75;48.55;;;13.90;69.50;;;;;;4929268;28;91300;-53
2022/12/27 05:29:04;;;;;;;64.05;49.03;;;13.90;69.40;;;;;;4921369;28;90266;-53
2022/12/27 05:31:30;;;;;;;61.75;48.80;;;13.90;69.50;;;;;;4928471;28;91168;-51
2022/12/27 05:33:56;;;;;;;62.65;48.70;;;13.90;69.30;;;;;;4914854;28;91850;-53
2022/12/27 05:36:23;;;;;;;63.53;48.90;;;13.90;69.30;;;;;;4925610;28;93624;-51
2022/12/27 05:38:49;;;;;;;62.55;49.35;;;13.90;69.30;;;;;;4927906;28;90596;-49
2022/12/27 05:41:14;;;;;;;63.05;48.58;;;13.80;69.50;;;;;;4938611;28;90095;-55
2022/12/27 05:43:40;;;;;;;62.25;49.05;;;13.80;69.40;;;;;;4922727;28;89976;-51
2022/12/27 05:46:11;;;;;;;62.97;49.20;;;13.80;69.40;;;;;;4920251;28;91907;-50
2022/12/27 05:48:37;;;;;;;62.38;48.75;;;13.80;69.30;;;;;;4928995;28;96043;-55
2022/12/27 05:51:08;;;;;;;62.55;48.85;;;13.80;69.30;;;;;;4927791;28;92999;-52
2022/12/27 05:53:34;;;;;;;61.83;48.70;;;13.80;69.30;;;;;;4925294;28;92980;-53
2022/12/27 05:56:00;;;;;;;61.30;48.42;;;13.80;69.20;;;;;;4929308;28;90628;-49
2022/12/27 05:58:26;;;;;;;61.45;48.20;;;13.80;69.30;;;;;;4922446;28;91929;-53
2022/12/27 06:00:52;;;;;;;62.05;49.03;;;13.80;69.30;;;;;;4919819;28;96122;-51
2022/12/27 06:03:18;;;;;;;62.40;48.35;;;13.80;69.30;;;;;;4916535;28;93219;-52
2022/12/27 06:05:44;;;;;;;61.08;48.72;;;13.70;69.30;;;;;;4924247;28;90090;-53
2022/12/27 06:08:10;;;;;;;62.30;48.95;;;13.70;69.20;;;;;;4923032;28;90066;-49
2022/12/27 06:10:36;;;;;;;62.17;48.58;;;13.80;69.20;;;;;;4927196;28;89988;-52
2022/12/27 06:13:03;;;;;;;62.65;48.78;;;13.70;69.10;;;;;;4924161;28;91454;-51
2022/12/27 06:15:29;;;;;;;61.53;48.90;;;13.70;69.10;;;;;;4931685;28;89092;-50
2022/12/27 06:17:55;;;;;;;61.97;48.70;;;13.70;69.90;;;;;;4945142;28;90443;-53
2022/12/27 06:20:21;;;;;;;63.22;49.08;;;13.70;69.20;;;;;;4916394;28;96089;-51
2022/12/27 06:22:47;;;;;;;61.85;49.17;;;13.70;69.10;;;;;;4920877;28;90765;-54
2022/12/27 06:25:12;;;;;;;63.00;48.55;;;13.70;69.10;;;;;;4931566;28;89514;-50
2022/12/27 06:27:38;;;;;;;61.17;48.85;;;13.70;69.10;;;;;;4923851;28;93171;-54
2022/12/27 06:30:06;;;;;;;63.80;48.45;;;13.70;69.10;;;;;;4924935;28;90001;-52
2022/12/27 06:32:33;;;;;;;62.10;49.05;;;13.80;69.10;;;;;;4927345;28;92729;-53
2022/12/27 06:34:58;;;;;;;61.35;49.03;;;13.70;69.00;;;;;;4929931;28;89824;-53
2022/12/27 06:37:24;;;;;;;62.20;48.63;;;13.70;69.10;;;;;;4926362;28;93210;-52
2022/12/27 06:39:50;;;;;;;62.22;48.42;;;13.70;69.00;;;;;;4918306;28;91110;-54
2022/12/27 06:42:16;;;;;;;60.97;48.25;;;13.70;68.90;;;;;;4933945;28;90144;-51
2022/12/27 06:44:41;;;;;;;61.97;48.70;;;13.70;68.90;;;;;;4930236;28;90131;-52
2022/12/27 06:47:07;;;;;;;62.03;48.75;;;13.70;69.00;;;;;;4921353;28;90865;-49
2022/12/27 06:49:33;;;;;;;62.67;48.85;;;13.70;68.70;;;;;;4915921;28;90998;-50
2022/12/27 06:51:58;;;;;;;62.08;48.45;;;13.70;69.70;;;;;;4931390;28;95115;-53
2022/12/27 06:54:24;;;;;;;62.70;49.08;;;13.70;68.80;;;;;;4927290;28;89934;-54
2022/12/27 06:56:50;;;;;;;61.97;49.22;;;13.70;68.90;;;;;;4919333;28;94836;-52
2022/12/27 06:59:15;;;;;;;62.28;48.65;;;13.70;68.80;;;;;;4919868;28;93200;-53
2022/12/27 07:01:41;;;;;;;61.00;48.63;;;13.70;68.80;;;;;;4923721;28;89799;-50
2022/12/27 07:04:08;;;;;;;62.35;48.95;;;13.70;68.80;;;;;;4924377;28;91583;-52
2022/12/27 07:06:36;;;;;;;62.03;49.13;;;13.70;68.70;;;;;;4918365;28;92683;-54
2022/12/27 07:09:02;;;;;;;62.45;48.42;;;13.70;68.80;;;;;;4925920;28;89787;-49
2022/12/27 07:11:30;;;;;;;62.53;48.50;;;13.70;68.90;;;;;;4922873;28;91175;-53
2022/12/27 07:13:56;;;;;;;62.40;48.83;;;13.70;68.80;;;;;;4934604;28;89448;-54
2022/12/27 07:16:28;;;;;;;62.53;49.50;;;13.70;68.80;;;;;;4926091;28;90187;-54
2022/12/27 07:18:55;;;;;;;61.65;48.63;;;13.70;68.80;;;;;;4929152;28;90689;-53
2022/12/27 07:21:23;;;;;;;61.60;48.50;;;13.70;68.60;;;;;;4920111;28;90968;-49
2022/12/27 07:23:49;;;;;;;61.80;48.97;;;13.70;68.60;;;;;;4926026;28;90275;-53
2022/12/27 07:26:20;;;;;;;63.05;49.03;;;13.70;68.50;;;;;;4913472;28;91890;-52
2022/12/27 07:28:46;;;;;;;62.05;48.47;;;13.70;68.70;;;;;;4914870;28;89253;-52
2022/12/27 07:31:14;;;;;;;62.72;48.90;;;13.70;68.70;;;;;;4918069;28;91505;-52
2022/12/27 07:33:41;;;;;;;61.10;48.53;;;13.80;68.20;;;;;;4918338;28;91648;-49
2022/12/27 07:36:09;;;;;;;61.40;48.95;;;13.80;68.10;;;;;;4916619;28;91032;-50
2022/12/27 07:38:34;;;;;;;65.85;49.38;;;13.80;68.00;;;;;;4930163;28;93836;-51
2022/12/27 07:41:01;;;;;;;62.78;48.70;;;13.80;67.90;;;;;;4918708;28;89829;-51
2022/12/27 07:43:32;;;;;;;61.40;49.10;;;13.70;68.10;;;;;;4922060;28;91452;-53
2022/12/27 07:46:08;;;;;;;63.03;49.10;;;13.70;68.10;;;;;;4923564;28;90082;-53
2022/12/27 07:48:35;;;;;;;63.97;48.72;;;13.60;68.30;;;;;;4930156;28;90575;-52
2022/12/27 07:51:01;;;;;;;61.47;48.83;;;13.60;67.90;;;;;;4929538;28;90080;-53
2022/12/27 07:53:27;;;;;;;63.38;50.35;;;13.60;68.30;;;;;;4924897;28;89840;-51
2022/12/27 07:55:52;;;;;;;62.40;50.67;;;13.60;68.00;;;;;;4915311;28;91400;-52
2022/12/27 07:58:19;;;;;;;62.50;50.55;;;13.50;68.70;;;;;;4930335;28;89870;-53
2022/12/27 08:00:49;;;;;;;66.22;51.75;;;13.40;69.00;;;;;;4915851;28;90838;-50
2022/12/27 08:03:16;;;;;;;87.57;67.60;;;13.40;68.80;;;;;;4915881;28;91861;-52
2022/12/27 08:05:49;;;;;;;81.07;59.90;;;13.40;69.00;;;;;;4922111;28;92348;-51
2022/12/27 08:08:21;;;;;;;76.07;58.55;;;13.50;68.80;;;;;;4921923;28;91747;-51
2022/12/27 08:10:47;;;;;;;75.82;57.40;;;13.50;68.60;;;;;;4929544;28;89919;-53
2022/12/27 08:13:12;;;;;;;77.65;58.00;;;13.50;69.00;;;;;;4919753;28;95143;-50
2022/12/27 08:15:40;;;;;;;71.75;56.83;;;13.50;69.10;;;;;;4921288;28;90208;-51
2022/12/27 08:18:06;;;;;;;73.63;56.40;;;13.60;69.10;;;;;;4914672;28;92059;-52
2022/12/27 08:20:32;;;;;;;72.75;55.90;;;13.60;68.70;;;;;;4907474;28;90381;-53
2022/12/27 08:22:57;;;;;;;72.18;55.70;;;13.60;68.70;;;;;;4919111;28;91644;-51
2022/12/27 08:25:23;;;;;;;73.35;55.72;;;13.70;68.70;;;;;;4929193;28;91400;-51
2022/12/27 08:27:49;;;;;;;73.40;55.53;;;13.70;68.60;;;;;;4923300;28;90394;-53
2022/12/27 08:30:15;;;;;;;72.68;55.53;;;13.70;68.70;;;;;;4921975;28;90913;-54
2022/12/27 08:32:40;;;;;;;69.35;54.42;;;13.70;68.50;;;;;;4917672;28;92577;-54
2022/12/27 08:35:06;;;;;;;69.53;53.47;;;13.70;68.40;;;;;;4922888;28;95331;-54
2022/12/27 08:37:32;;;;;;;72.30;54.33;;;13.80;68.60;;;;;;4926532;28;91717;-53
2022/12/27 08:39:58;;;;;;;70.47;54.95;;;13.80;68.30;;;;;;4926722;28;89905;-50
2022/12/27 08:42:24;;;;;;;71.22;55.13;;;13.90;68.10;;;;;;4925144;28;88980;-53
2022/12/27 08:44:50;;;;;;;73.03;54.85;;;13.80;68.50;;;;;;4925733;28;90765;-53
2022/12/27 08:47:16;;;;;;;72.88;54.45;;;13.80;68.70;;;;;;4930281;28;90581;-56
2022/12/27 08:49:41;;;;;;;71.53;54.15;;;13.90;68.70;;;;;;4922766;28;90963;-54
2022/12/27 08:52:07;;;;;;;70.10;53.95;;;13.90;68.80;;;;;;4931076;28;89854;-52
2022/12/27 08:54:32;;;;;;;73.03;54.67;;;14.00;69.00;;;;;;4923798;28;91429;-50
2022/12/27 08:56:58;;;;;;;100.90;63.45;;;14.00;69.00;;;;;;4923764;28;90165;-53
2022/12/27 08:59:24;;;;;;;75.97;54.70;;;14.00;69.60;;;;;;4921057;28;89501;-52
2022/12/27 09:01:49;;;;;;;69.82;53.70;;;14.00;68.90;;;;;;4918167;28;92805;-52
2022/12/27 09:04:15;;;;;;;69.90;52.88;;;14.00;68.30;;;;;;4924834;28;94503;-53
2022/12/27 09:06:41;;;;;;;70.63;53.85;;;13.90;68.80;;;;;;4926591;28;90536;-54
2022/12/27 09:09:06;;;;;;;71.63;56.10;;;13.90;68.90;;;;;;4913157;28;93836;-52
2022/12/27 09:11:33;;;;;;;73.35;57.05;;;13.90;69.20;;;;;;4922050;28;89554;-53
2022/12/27 09:14:01;;;;;;;72.93;55.53;;;13.90;70.40;;;;;;4918977;28;96395;-52
2022/12/27 09:16:28;;;;;;;69.13;54.45;;;13.90;80.00;;;;;;4921110;28;91021;-53
2022/12/27 09:18:56;;;;;;;71.05;53.70;;;14.00;74.40;;;;;;4926757;28;90144;-52
2022/12/27 09:21:23;;;;;;;70.80;53.92;;;14.10;72.80;;;;;;4915053;28;89680;-50
2022/12/27 09:23:49;;;;;;;71.88;54.72;;;14.20;73.20;;;;;;4912565;28;92982;-53
2022/12/27 09:26:25;;;;;;;67.95;52.38;;;14.10;73.20;;;;;;4918176;28;91563;-54
2022/12/27 09:28:51;;;;;;;71.07;53.78;;;14.20;75.30;;;;;;4918429;28;89625;-53
2022/12/27 09:31:18;;;;;;;74.15;52.35;;;14.30;75.30;;;;;;4925194;28;89510;-54
2022/12/27 09:33:44;;;;;;;70.72;52.55;;;14.30;73.70;;;;;;4922337;28;91654;-54
2022/12/27 09:36:16;;;;;;;70.70;52.67;;;14.40;72.80;;;;;;4920368;28;89829;-53
2022/12/27 09:38:43;;;;;;;70.72;52.15;;;14.50;72.60;;;;;;4927458;28;92582;-54
2022/12/27 09:41:36;;;;;;;66.80;51.13;;;14.50;71.50;;;;;;4928674;28;90206;-50
2022/12/27 09:44:07;;;;;;;68.03;50.70;;;14.60;70.40;;;;;;4912066;28;90816;-54
2022/12/27 09:46:40;;;;;;;71.53;51.37;;;14.80;69.30;;;;;;4932620;28;90709;-53
2022/12/27 09:49:14;;;;;;;69.45;51.17;;;15.00;68.10;;;;;;4929590;28;90820;-49
2022/12/27 09:51:51;;;;;;;67.43;50.75;;;15.00;68.80;;;;;;4918825;28;89930;-47
2022/12/27 09:54:32;;;;;;;68.07;50.92;;;15.10;67.50;;;;;;4928598;28;91822;-50
2022/12/27 09:57:01;;;;;;;67.45;51.08;;;15.10;66.90;;;;;;4919763;28;90715;-46
2022/12/27 09:59:33;;;;;;;69.82;50.78;;;15.10;66.40;;;;;;4927940;28;90149;-47
2022/12/27 10:01:58;;;;;;;65.60;50.33;;;15.10;66.50;;;;;;4918942;28;90242;-51
2022/12/27 10:04:25;;;;;;;67.40;50.90;;;15.20;66.10;;;;;;4923172;28;91872;-51
2022/12/27 10:06:53;;;;;;;70.15;51.00;;;15.20;66.20;;;;;;4922666;28;91348;-48
2022/12/27 10:10:03;;;;;;;75.60;52.95;;;15.20;67.30;;;;;;4923428;28;91528;-48
2022/12/27 10:13:13;;;;;;;69.47;52.25;;;15.20;67.40;;;;;;4922723;28;91736;-52
2022/12/27 10:15:47;;;;;;;69.40;51.90;;;15.10;67.30;;;;;;4915333;28;91746;-48
2022/12/27 10:18:25;;;;;;;69.20;52.25;;;15.10;68.60;;;;;;4911580;28;90991;-51
2022/12/27 10:21:18;;;;;;;67.55;51.92;;;15.10;68.50;;;;;;4918296;28;91621;-51
2022/12/27 10:23:51;;;;;;;74.53;54.63;;;15.10;68.10;;;;;;4922841;28;89509;-48
2022/12/27 10:26:18;;;;;;;70.45;52.75;;;15.20;72.80;;;;;;4927184;28;90043;-48
2022/12/27 10:28:48;;;;;;;70.20;51.85;;;15.30;72.50;;;;;;4919260;28;91415;-48
2022/12/27 10:31:18;;;;;;;72.20;52.00;;;15.40;69.30;;;;;;4919364;28;91064;-48
2022/12/27 10:33:46;;;;;;;69.97;51.70;;;15.20;67.70;;;;;;4920008;28;93541;-49
2022/12/27 10:36:19;;;;;;;69.72;51.10;;;15.20;68.00;;;;;;4926438;28;90412;-50
2022/12/27 10:38:45;;;;;;;70.03;51.03;;;15.10;67.80;;;;;;4935816;28;90036;-52
2022/12/27 10:41:48;;;;;;;72.85;51.50;;;15.20;70.30;;;;;;4921280;28;89766;-49
2022/12/27 10:44:14;;;;;;;69.40;51.28;;;15.40;69.90;;;;;;4924736;28;92939;-52
2022/12/27 10:46:43;;;;;;;68.68;50.97;;;15.60;67.90;;;;;;4925535;28;90098;-50
2022/12/27 10:49:29;;;;;;;70.20;50.95;;;15.70;67.40;;;;;;4927582;28;93139;-50
2022/12/27 10:52:29;;;;;;;69.82;51.45;;;15.80;67.00;;;;;;4921154;28;90484;-48
2022/12/27 10:54:56;;;;;;;72.40;51.63;;;15.80;67.70;;;;;;4910065;28;92426;-52
2022/12/27 10:57:26;;;;;;;73.22;51.55;;;15.70;67.10;;;;;;4924057;28;91482;-50
2022/12/27 11:00:21;;;;;;;74.80;52.63;;;15.70;67.20;;;;;;4919243;28;90875;-51
2022/12/27 11:02:59;;;;;;;78.03;51.50;;;15.70;67.60;;;;;;4922645;28;91401;-48
2022/12/27 11:05:28;;;;;;;78.57;53.53;;;15.70;68.10;;;;;;4914932;28;91729;-52
2022/12/27 11:07:54;;;;;;;75.55;52.35;;;15.70;68.20;;;;;;4912912;28;90101;-50
2022/12/27 11:10:26;;;;;;;81.30;53.42;;;15.70;68.70;;;;;;4917040;28;91745;-51
2022/12/27 11:12:58;;;;;;;91.25;52.13;;;15.80;70.10;;;;;;4925981;28;92575;-46
2022/12/27 11:15:26;;;;;;;77.20;52.42;;;15.80;70.00;;;;;;4918878;28;91286;-50
2022/12/27 11:17:54;;;;;;;74.78;52.00;;;15.90;70.30;;;;;;4922378;28;90226;-48
2022/12/27 11:20:32;;;;;;;78.28;52.70;;;16.00;70.50;;;;;;4917552;28;95125;-50
2022/12/27 11:23:02;;;;;;;74.32;52.80;;;16.00;70.50;;;;;;4916169;28;90818;-52
2022/12/27 11:25:30;;;;;;;76.75;52.65;;;16.00;70.70;;;;;;4932265;28;89834;-47
2022/12/27 11:28:02;;;;;;;73.85;52.25;;;16.10;70.90;;;;;;4918435;28;93062;-50
2022/12/27 11:30:36;;;;;;;77.90;52.47;;;16.10;71.30;;;;;;4916797;28;93144;-50
2022/12/27 11:33:23;;;;;;;75.78;52.95;;;16.10;71.30;;;;;;4922607;28;92159;-51
2022/12/27 11:35:52;;;;;;;75.78;52.60;;;16.20;71.20;;;;;;4922822;28;90512;-51
2022/12/27 11:38:29;;;;;;;75.18;52.33;;;16.20;71.50;;;;;;4924041;28;95021;-50
2022/12/27 11:41:32;;;;;;;77.30;53.30;;;16.20;71.90;;;;;;4927970;28;90127;-50
2022/12/27 11:44:08;;;;;;;80.03;53.22;;;16.30;72.30;;;;;;4924903;28;89736;-53
2022/12/27 11:46:45;;;;;;;74.35;52.53;;;16.30;72.00;;;;;;4926124;28;89745;-49
2022/12/27 11:49:19;;;;;;;70.75;51.72;;;16.30;72.10;;;;;;4915057;28;92122;-49
2022/12/27 11:52:26;;;;;;;77.90;52.50;;;16.30;72.20;;;;;;4907111;28;92760;-48
2022/12/27 11:54:57;;;;;;;79.63;53.08;;;16.30;72.50;;;;;;4922002;28;92403;-48
2022/12/27 11:57:51;;;;;;;75.45;52.53;;;16.30;72.80;;;;;;4916057;28;89950;-50
2022/12/27 12:00:23;;;;;;;71.68;51.42;;;16.30;72.90;;;;;;4916042;28;92233;-50
2022/12/27 12:03:20;;;;;;;77.35;52.92;;;16.30;72.70;;;;;;4921145;28;90876;-50
2022/12/27 12:06:33;;;;;;;76.60;52.10;;;16.30;72.30;;;;;;4906368;28;92088;-51
2022/12/27 12:09:22;;;;;;;72.72;52.20;;;16.30;72.60;;;;;;4914198;28;89569;-48
2022/12/27 12:11:54;;;;;;;75.43;51.97;;;16.30;71.70;;;;;;4926791;28;90398;-50
2022/12/27 12:14:33;;;;;;;75.80;52.75;;;16.30;72.10;;;;;;4915871;28;90704;-49
2022/12/27 12:17:38;;;;;;;74.47;52.80;;;16.30;72.50;;;;;;4913742;28;91755;-47
2022/12/27 12:20:10;;;;;;;79.75;53.53;;;16.30;72.50;;;;;;4917841;28;91140;-51
2022/12/27 12:23:07;;;;;;;157.57;82.05;;;16.30;73.70;;;;;;4919044;28;91725;-49
2022/12/27 12:25:57;;;;;;;109.78;63.92;;;16.30;76.10;;;;;;4913024;28;90230;-50
2022/12/27 12:28:56;;;;;;;82.82;54.90;;;16.30;76.90;;;;;;4920848;28;90043;-49
2022/12/27 12:31:56;;;;;;;76.80;53.40;;;16.20;73.70;;;;;;4925269;28;90333;-50
2022/12/27 12:34:41;;;;;;;81.30;53.33;;;16.20;72.60;;;;;;4917340;28;95275;-49
2022/12/27 12:37:16;;;;;;;82.00;52.90;;;16.20;71.90;;;;;;4920423;28;90893;-51
2022/12/27 12:40:13;;;;;;;79.50;53.17;;;16.20;71.50;;;;;;4912518;28;90836;-50
2022/12/27 12:42:46;;;;;;;76.65;52.80;;;16.20;71.10;;;;;;4917878;28;90100;-52
2022/12/27 12:45:30;;;;;;;77.95;53.97;;;16.20;71.20;;;;;;4918367;28;91051;-49
2022/12/27 12:48:19;;;;;;;77.90;53.35;;;16.20;70.90;;;;;;4922374;28;93502;-49
2022/12/27 12:51:26;;;;;;;77.65;52.58;;;16.20;71.40;;;;;;4924755;28;92021;-48
2022/12/27 12:54:37;;;;;;;78.40;51.90;;;16.20;70.20;;;;;;4928744;28;90079;-49
2022/12/27 12:57:34;;;;;;;80.32;51.80;;;16.20;69.60;;;;;;4922997;28;91509;-50
2022/12/27 13:00:11;;;;;;;75.72;52.13;;;16.30;69.50;;;;;;4931268;28;90978;-50
2022/12/27 13:02:58;;;;;;;87.75;54.92;;;16.30;69.50;;;;;;4918941;28;89697;-47
2022/12/27 13:05:43;;;;;;;106.70;73.43;;;16.30;69.00;;;;;;4926120;28;90349;-52
2022/12/27 13:08:30;;;;;;;102.28;66.95;;;16.30;69.20;;;;;;4928977;28;90291;-46
2022/12/27 13:11:17;;;;;;;102.13;64.70;;;16.20;69.10;;;;;;4920576;28;93913;-47
2022/12/27 13:14:08;;;;;;;86.95;58.80;;;16.30;71.10;;;;;;4926706;28;91311;-49
2022/12/27 13:16:54;;;;;;;88.05;57.53;;;16.30;71.80;;;;;;4921179;28;91933;-49
2022/12/27 13:19:38;;;;;;;84.53;55.95;;;16.30;72.20;;;;;;4921719;28;93026;-51
2022/12/27 13:22:12;;;;;;;85.85;55.25;;;16.30;70.50;;;;;;4924193;28;89928;-48
2022/12/27 13:25:09;;;;;;;81.60;55.22;;;16.30;70.40;;;;;;4918265;28;90943;-47
2022/12/27 13:27:58;;;;;;;82.18;54.78;;;16.30;70.30;;;;;;4927931;28;90037;-49
2022/12/27 13:30:37;;;;;;;82.93;55.22;;;16.20;69.70;;;;;;4918859;28;90887;-51
2022/12/27 13:33:21;;;;;;;82.45;54.33;;;16.30;69.40;;;;;;4926560;28;91308;-51
2022/12/27 13:36:27;;;;;;;79.88;54.95;;;16.30;69.00;;;;;;4924110;28;90180;-47
2022/12/27 13:39:21;;;;;;;83.13;55.05;;;16.20;68.70;;;;;;4922149;28;89644;-47
2022/12/27 13:42:01;;;;;;;83.53;55.28;;;16.30;70.70;;;;;;4924653;28;92136;-52
2022/12/27 13:44:43;;;;;;;79.28;55.25;;;16.40;70.10;;;;;;4924997;28;91280;-51
2022/12/27 13:47:33;;;;;;;83.57;55.45;;;16.50;70.00;;;;;;4923161;28;90645;-52
2022/12/27 13:50:28;;;;;;;79.72;54.80;;;16.50;69.80;;;;;;4921028;28;90663;-48
2022/12/27 13:53:38;;;;;;;82.75;54.97;;;16.50;69.90;;;;;;4923747;28;91495;-51
2022/12/27 13:56:22;;;;;;;79.50;54.08;;;16.50;69.90;;;;;;4929197;28;89943;-49
2022/12/27 13:59:24;;;;;;;79.15;54.03;;;16.50;70.00;;;;;;4929121;28;89475;-50
2022/12/27 14:02:01;;;;;;;77.57;54.72;;;16.60;69.90;;;;;;4918733;28;89794;-47
2022/12/27 14:04:50;;;;;;;74.88;53.65;;;16.60;70.00;;;;;;4922485;28;90035;-51
2022/12/27 14:07:37;;;;;;;77.50;53.53;;;16.60;69.30;;;;;;4925425;28;90866;-51
2022/12/27 14:10:21;;;;;;;74.30;53.08;;;16.60;69.30;;;;;;4924056;28;91017;-52
2022/12/27 14:13:00;;;;;;;78.40;53.80;;;16.60;69.30;;;;;;4920981;28;90283;-50
2022/12/27 14:15:55;;;;;;;78.03;52.88;;;16.60;69.20;;;;;;4914721;28;94749;-49
2022/12/27 14:18:48;;;;;;;80.40;53.25;;;16.60;69.30;;;;;;4910569;28;92213;-51
2022/12/27 14:21:51;;;;;;;75.97;52.75;;;16.60;69.40;;;;;;4915776;28;90206;-49
2022/12/27 14:24:36;;;;;;;76.78;53.28;;;16.60;69.60;;;;;;4932254;28;94617;-47
2022/12/27 14:27:32;;;;;;;71.65;52.28;;;16.60;69.50;;;;;;4918870;28;90388;-49
2022/12/27 14:30:06;;;;;;;75.28;52.40;;;16.90;69.60;;;;;;4910989;28;89875;-48
2022/12/27 14:32:44;;;;;;;77.82;52.78;;;17.10;69.30;;;;;;4924544;28;89976;-50
2022/12/27 14:35:33;;;;;;;71.97;52.80;;;17.40;68.70;;;;;;4923508;28;89971;-46